Time;durP1;ratioP1;P1;durP2;ratioP2;P2;SDS_P1;SDS_P2;PMS_P1;PMS_P2;Temp;Humidity;BMP_temperature;BMP_pressure;BME280_temperature;BME280_humidity;BME280_pressure;Samples;Min_cycle;Max_cycle;Signal;HPM_P1;HPM_P2
2024/01/15 00:02:06;;;;;;;12.15;4.57;;;;;;;2.51;100.00;99004.28;5069400;28;20047;-66
2024/01/15 00:04:39;;;;;;;9.83;3.80;;;;;;;2.49;100.00;98992.88;5064208;28;20040;-64
2024/01/15 00:07:05;;;;;;;10.50;4.40;;;;;;;2.46;100.00;98996.25;5064550;28;20317;-67
2024/01/15 00:09:30;;;;;;;10.43;4.68;;;;;;;2.44;100.00;98994.41;5063789;28;20033;-67
2024/01/15 00:11:55;;;;;;;9.83;4.20;;;;;;;2.43;100.00;98987.41;5063912;28;20051;-64
2024/01/15 00:14:21;;;;;;;12.17;4.73;;;;;;;2.43;100.00;98988.28;5064019;28;20614;-66
2024/01/15 00:16:48;;;;;;;9.47;3.77;;;;;;;2.45;100.00;98980.56;5063424;28;20298;-66
2024/01/15 00:19:14;;;;;;;11.15;4.40;;;;;;;2.44;100.00;98986.59;5063824;28;20408;-64
2024/01/15 00:21:39;;;;;;;14.30;4.60;;;;;;;2.45;100.00;98973.63;5066557;28;20103;-68
2024/01/15 00:24:04;;;;;;;13.60;4.43;;;;;;;2.43;100.00;98958.75;5064575;28;20124;-63
2024/01/15 00:26:30;;;;;;;13.17;5.43;;;;;;;2.38;100.00;98960.25;5063744;28;20062;-64
2024/01/15 00:28:55;;;;;;;11.53;4.67;;;;;;;2.41;100.00;98965.63;5063792;28;20111;-68
2024/01/15 00:31:20;;;;;;;13.57;4.90;;;;;;;2.43;100.00;98953.53;5063931;28;20032;-64
2024/01/15 00:33:46;;;;;;;12.67;4.73;;;;;;;2.43;100.00;98954.41;5066427;28;20275;-64
2024/01/15 00:36:11;;;;;;;14.63;5.03;;;;;;;2.43;100.00;98945.72;5063795;28;20296;-67
2024/01/15 00:38:37;;;;;;;13.53;4.83;;;;;;;2.46;100.00;98945.88;5064310;28;20158;-64
2024/01/15 00:41:02;;;;;;;10.63;4.03;;;;;;;2.44;100.00;98937.97;5063907;28;20051;-67
2024/01/15 00:43:28;;;;;;;11.50;4.28;;;;;;;2.47;100.00;98942.41;5063011;28;20032;-65
2024/01/15 00:45:53;;;;;;;11.40;3.80;;;;;;;2.48;100.00;98933.78;5063698;28;20059;-66
2024/01/15 00:48:19;;;;;;;12.40;4.83;;;;;;;2.48;100.00;98926.84;5064600;28;20079;-65
2024/01/15 00:50:44;;;;;;;12.13;4.97;;;;;;;2.51;100.00;98934.81;5064366;28;20124;-65
2024/01/15 00:53:09;;;;;;;14.37;5.20;;;;;;;2.54;100.00;98928.84;5063481;28;20389;-67
2024/01/15 00:55:36;;;;;;;11.67;4.00;;;;;;;2.51;100.00;98928.72;5064120;28;20040;-64
2024/01/15 00:58:01;;;;;;;9.93;4.20;;;;;;;2.55;100.00;98928.03;5064468;28;20071;-64
2024/01/15 01:00:26;;;;;;;10.70;4.33;;;;;;;2.58;100.00;98917.72;5066815;28;20683;-70
2024/01/15 01:02:52;;;;;;;13.17;4.50;;;;;;;2.60;100.00;98926.50;5065784;28;20048;-65
2024/01/15 01:05:17;;;;;;;10.70;4.27;;;;;;;2.61;100.00;98912.66;5064790;28;20607;-68
2024/01/15 01:07:42;;;;;;;8.57;3.40;;;;;;;2.61;100.00;98912.66;5065233;28;20040;-66
2024/01/15 01:10:08;;;;;;;11.10;4.00;;;;;;;2.59;100.00;98894.34;5063547;28;20050;-65
2024/01/15 01:12:33;;;;;;;7.53;2.53;;;;;;;2.57;100.00;98903.78;5063442;28;20064;-67
2024/01/15 01:14:59;;;;;;;10.93;4.00;;;;;;;2.59;100.00;98909.97;5062870;28;20123;-66
2024/01/15 01:17:25;;;;;;;10.53;4.60;;;;;;;2.60;100.00;98890.03;5063990;28;20123;-64
2024/01/15 01:19:50;;;;;;;15.60;4.82;;;;;;;2.60;100.00;98903.06;5063491;28;20044;-65
2024/01/15 01:22:15;;;;;;;8.43;3.47;;;;;;;2.61;100.00;98913.53;5065118;28;20032;-64
2024/01/15 01:24:41;;;;;;;11.87;4.47;;;;;;;2.59;100.00;98911.69;5063133;28;20040;-65
2024/01/15 01:27:06;;;;;;;11.83;4.70;;;;;;;2.55;100.00;98909.78;5063260;28;20487;-65
2024/01/15 01:29:32;;;;;;;11.43;5.17;;;;;;;2.50;100.00;98908.69;5063013;28;20040;-65
2024/01/15 01:31:57;;;;;;;10.85;4.10;;;;;;;2.44;100.00;98909.31;5065765;28;20044;-68
2024/01/15 01:34:23;;;;;;;9.40;3.47;;;;;;;2.39;100.00;98899.53;5063655;28;20042;-66
2024/01/15 01:36:48;;;;;;;13.97;5.10;;;;;;;2.30;100.00;98905.22;5062719;28;20397;-66
2024/01/15 01:39:13;;;;;;;11.83;5.00;;;;;;;2.28;100.00;98909.47;5062874;28;20040;-66
2024/01/15 01:41:39;;;;;;;11.20;4.40;;;;;;;2.23;100.00;98900.56;5062845;28;20124;-65
2024/01/15 01:44:05;;;;;;;12.73;5.57;;;;;;;2.20;100.00;98907.34;5063070;28;20140;-66
2024/01/15 01:46:31;;;;;;;11.53;4.57;;;;;;;2.18;100.00;98907.28;5062435;28;20111;-65
2024/01/15 01:48:57;;;;;;;10.23;4.30;;;;;;;2.18;100.00;98902.97;5062354;28;20041;-67
2024/01/15 01:51:24;;;;;;;12.35;4.88;;;;;;;2.18;100.00;98905.56;5063112;28;20028;-66
2024/01/15 01:53:50;;;;;;;11.77;4.75;;;;;;;2.20;100.00;98902.16;5060696;28;20044;-68
2024/01/15 01:56:17;;;;;;;12.53;3.90;;;;;;;2.21;100.00;98907.44;5062125;28;20162;-66
2024/01/15 01:58:44;;;;;;;13.18;4.78;;;;;;;2.23;100.00;98903.16;5062386;28;20048;-67
2024/01/15 02:01:11;;;;;;;9.25;3.78;;;;;;;2.23;100.00;98905.75;5067438;28;20036;-65
2024/01/15 02:03:36;;;;;;;11.68;5.03;;;;;;;2.22;100.00;98908.31;5064322;28;20667;-64
2024/01/15 02:06:02;;;;;;;12.23;4.50;;;;;;;2.22;100.00;98905.72;5065869;28;20032;-68
2024/01/15 02:08:27;;;;;;;8.97;4.10;;;;;;;2.24;100.00;98897.13;5064729;28;20033;-66
2024/01/15 02:10:52;;;;;;;15.93;4.85;;;;;;;2.23;100.00;98902.28;5065834;28;20040;-66
2024/01/15 02:13:18;;;;;;;12.30;3.83;;;;;;;2.25;100.00;98890.22;5066199;28;20047;-67
2024/01/15 02:15:44;;;;;;;11.90;3.77;;;;;;;2.21;100.00;98897.03;5065737;28;20611;-66
2024/01/15 02:18:09;;;;;;;13.88;4.40;;;;;;;2.20;100.00;98892.63;5066027;28;20078;-65
2024/01/15 02:20:35;;;;;;;14.00;4.90;;;;;;;2.18;100.00;98900.34;5067213;28;20108;-65
2024/01/15 02:23:07;;;;;;;13.07;4.33;;;;;;;2.15;100.00;98883.72;5065412;28;20212;-65
2024/01/15 02:25:32;;;;;;;12.27;4.03;;;;;;;2.15;100.00;98886.31;5064796;28;20033;-66
2024/01/15 02:27:58;;;;;;;11.50;3.67;;;;;;;2.14;100.00;98889.75;5066461;28;20041;-68
2024/01/15 02:30:25;;;;;;;9.77;4.00;;;;;;;2.13;100.00;98886.25;5065509;28;20040;-66
2024/01/15 02:32:50;;;;;;;12.98;4.40;;;;;;;2.12;100.00;98881.00;5068686;28;20082;-65
2024/01/15 02:35:16;;;;;;;11.10;3.17;;;;;;;2.08;100.00;98873.84;5066004;28;20482;-68
2024/01/15 02:37:41;;;;;;;9.30;3.87;;;;;;;2.02;100.00;98881.41;5065565;28;20047;-67
2024/01/15 02:40:07;;;;;;;12.73;4.50;;;;;;;1.98;100.00;98877.75;5065207;28;20116;-65
2024/01/15 02:42:33;;;;;;;11.05;3.55;;;;;;;1.99;100.00;98878.66;5065791;28;20793;-65
2024/01/15 02:44:58;;;;;;;11.80;4.27;;;;;;;1.99;100.00;98884.75;5064283;28;20059;-68
2024/01/15 02:47:23;;;;;;;9.93;4.10;;;;;;;2.03;100.00;98880.56;5066630;28;20132;-67
2024/01/15 02:49:49;;;;;;;10.27;3.85;;;;;;;2.05;100.00;98873.72;5064789;28;20092;-64
2024/01/15 02:52:14;;;;;;;11.53;4.47;;;;;;;2.01;100.00;98880.50;5066937;28;20041;-69
2024/01/15 02:54:39;;;;;;;13.03;4.63;;;;;;;1.94;100.00;98875.84;5065625;28;20066;-65
2024/01/15 02:57:05;;;;;;;11.33;3.73;;;;;;;1.98;100.00;98869.06;5066000;28;20124;-63
2024/01/15 02:59:30;;;;;;;10.33;4.07;;;;;;;1.97;100.00;98867.28;5065206;28;20041;-67
2024/01/15 03:01:55;;;;;;;8.63;3.40;;;;;;;1.97;100.00;98854.28;5071035;28;20127;-67
2024/01/15 03:04:21;;;;;;;10.20;3.83;;;;;;;1.95;100.00;98862.00;5065594;28;20117;-64
2024/01/15 03:06:46;;;;;;;11.97;4.13;;;;;;;1.93;100.00;98866.25;5065611;28;20044;-68
2024/01/15 03:09:11;;;;;;;11.57;3.70;;;;;;;1.91;100.00;98854.91;5056787;28;20069;-65
2024/01/15 03:11:40;;;;;;;11.00;4.47;;;;;;;1.92;100.00;98854.06;5065893;28;20543;-64
2024/01/15 03:14:06;;;;;;;8.63;3.72;;;;;;;1.94;100.00;98862.81;5059463;28;20427;-66
2024/01/15 03:18:52;;;;;;;9.75;4.32;;;;;;;1.94;100.00;98847.22;5100557;27;20363;-67
2024/01/15 03:21:18;;;;;;;9.02;3.63;;;;;;;1.96;100.00;98849.88;5095764;28;20066;-66
2024/01/15 03:23:43;;;;;;;11.97;3.67;;;;;;;2.01;100.00;98853.59;5083431;28;20867;-69
2024/01/15 03:26:09;;;;;;;9.90;3.17;;;;;;;2.05;100.00;98850.28;5088554;28;20036;-65
2024/01/15 03:28:34;;;;;;;10.70;3.10;;;;;;;2.08;100.00;98856.50;5084924;28;20043;-68
2024/01/15 03:30:59;;;;;;;10.50;3.00;;;;;;;2.11;100.00;98861.88;5077377;28;20124;-66
2024/01/15 03:33:25;;;;;;;8.57;3.00;;;;;;;2.10;99.87;98852.28;5079241;28;20098;-63
2024/01/15 03:35:50;;;;;;;15.20;3.30;;;;;;;2.13;99.86;98851.50;5079959;28;20122;-68
2024/01/15 03:38:16;;;;;;;14.33;2.90;;;;;;;2.12;99.92;98845.41;5080223;28;20036;-64
2024/01/15 03:40:41;;;;;;;11.67;3.77;;;;;;;2.14;99.25;98859.38;5081517;28;20131;-65
2024/01/15 03:43:06;;;;;;;10.52;3.13;;;;;;;2.16;98.82;98852.53;5077295;28;20039;-66
2024/01/15 03:45:32;;;;;;;11.17;3.27;;;;;;;2.19;98.58;98843.97;5099811;28;20114;-66
2024/01/15 03:47:57;;;;;;;10.97;2.97;;;;;;;2.22;98.39;98838.00;5082172;28;20131;-67
2024/01/15 03:50:22;;;;;;;8.17;2.57;;;;;;;2.22;98.57;98845.81;5088259;28;20055;-65
2024/01/15 03:52:48;;;;;;;6.13;2.30;;;;;;;2.22;97.76;98832.81;5087812;28;20131;-70
2024/01/15 03:55:13;;;;;;;9.70;2.83;;;;;;;2.25;97.54;98841.63;5088377;28;20040;-68
2024/01/15 03:57:38;;;;;;;15.40;2.67;;;;;;;2.27;97.08;98824.34;5079800;28;20028;-65
2024/01/15 04:00:05;;;;;;;7.37;2.10;;;;;;;2.26;97.20;98819.09;5087968;28;20047;-67
2024/01/15 04:02:30;;;;;;;10.05;3.10;;;;;;;2.27;96.69;98824.34;5084073;28;20447;-66
2024/01/15 04:04:55;;;;;;;10.57;3.27;;;;;;;2.28;96.86;98825.22;5087365;28;20044;-62
2024/01/15 04:07:21;;;;;;;7.77;2.50;;;;;;;2.28;96.87;98825.22;5081943;28;20133;-64
2024/01/15 04:09:46;;;;;;;8.80;2.67;;;;;;;2.27;96.79;98828.69;5081376;28;20448;-66
2024/01/15 04:12:11;;;;;;;8.10;2.17;;;;;;;2.29;96.63;98808.78;5088317;28;20040;-63
2024/01/15 04:14:37;;;;;;;7.47;2.67;;;;;;;2.29;96.24;98795.75;5095562;28;20482;-63
2024/01/15 04:17:02;;;;;;;11.93;3.17;;;;;;;2.31;95.01;98820.16;5080963;28;20136;-66
2024/01/15 04:19:28;;;;;;;10.83;2.10;;;;;;;2.34;94.81;98810.75;5079829;28;20496;-69
2024/01/15 04:21:53;;;;;;;6.87;1.90;;;;;;;2.34;95.21;98807.25;5082875;28;20063;-66
2024/01/15 04:24:18;;;;;;;8.02;2.40;;;;;;;2.36;95.00;98814.34;5078973;28;20114;-66
2024/01/15 04:26:44;;;;;;;6.60;2.10;;;;;;;2.40;94.62;98815.34;5079008;28;20524;-63
2024/01/15 04:29:09;;;;;;;10.70;2.83;;;;;;;2.40;93.91;98805.81;5079663;28;20065;-62
2024/01/15 04:31:35;;;;;;;7.13;2.03;;;;;;;2.39;93.23;98816.16;5067381;28;20290;-68
2024/01/15 04:34:00;;;;;;;6.50;2.20;;;;;;;2.41;93.25;98811.91;5067166;28;20116;-64
2024/01/15 04:36:26;;;;;;;8.77;2.27;;;;;;;2.42;92.44;98813.66;5070745;28;20048;-64
2024/01/15 04:41:18;;;;;;;9.70;2.38;;;;;;;2.48;92.31;98816.53;4989360;28;20843;-64
2024/01/15 04:43:44;;;;;;;7.27;1.90;;;;;;;2.48;92.18;98809.63;4989216;28;20058;-69
2024/01/15 04:46:09;;;;;;;7.90;1.90;;;;;;;2.50;92.23;98814.91;4986126;28;20135;-67
2024/01/15 04:48:35;;;;;;;6.73;2.47;;;;;;;2.49;91.57;98800.09;4985064;28;20042;-66
2024/01/15 04:51:00;;;;;;;7.23;1.93;;;;;;;2.49;91.80;98785.34;4979757;28;20136;-68
2024/01/15 04:53:26;;;;;;;9.63;2.20;;;;;;;2.49;91.05;98792.28;4983990;28;20107;-65
2024/01/15 04:55:51;;;;;;;6.78;2.00;;;;;;;2.46;91.27;98767.00;4985747;28;20038;-67
2024/01/15 04:58:16;;;;;;;11.60;2.10;;;;;;;2.42;91.18;98777.19;4978009;28;20122;-66
2024/01/15 05:00:42;;;;;;;5.90;1.50;;;;;;;2.39;91.73;98784.91;4982599;28;20254;-69
2024/01/15 05:03:07;;;;;;;8.20;2.22;;;;;;;2.41;91.23;98797.19;4978835;28;20497;-66
2024/01/15 05:05:33;;;;;;;12.10;2.07;;;;;;;2.43;91.36;98787.69;4977708;28;20482;-65
2024/01/15 05:07:58;;;;;;;9.53;1.83;;;;;;;2.45;90.99;98792.97;4985593;28;20038;-67
2024/01/15 05:10:23;;;;;;;5.83;1.43;;;;;;;2.44;91.10;98796.41;4985874;28;20042;-65
2024/01/15 05:12:49;;;;;;;7.17;2.07;;;;;;;2.38;91.83;98789.22;4985682;28;20124;-69
2024/01/15 05:15:14;;;;;;;6.13;1.27;;;;;;;2.35;92.62;98790.81;4985188;28;20118;-65
2024/01/15 05:17:40;;;;;;;8.40;1.60;;;;;;;2.36;93.23;98792.59;4986245;28;20053;-65
2024/01/15 05:20:05;;;;;;;7.73;1.40;;;;;;;2.32;93.32;98785.50;4977170;28;20134;-68
2024/01/15 05:22:31;;;;;;;7.18;1.58;;;;;;;2.28;93.95;98786.16;4980657;28;20713;-63
2024/01/15 05:24:56;;;;;;;7.20;1.67;;;;;;;2.28;94.73;98776.63;5012545;28;20037;-65
2024/01/15 05:27:21;;;;;;;6.97;1.67;;;;;;;2.30;94.59;98781.91;4977171;28;20506;-64
2024/01/15 05:29:47;;;;;;;5.70;1.23;;;;;;;2.36;94.89;98784.78;4985202;28;20531;-68
2024/01/15 05:32:12;;;;;;;4.40;1.30;;;;;;;2.39;94.49;98777.09;4972817;28;20121;-67
2024/01/15 05:34:38;;;;;;;5.85;1.50;;;;;;;2.43;94.14;98773.78;4977177;28;20117;-66
2024/01/15 05:37:03;;;;;;;5.60;1.40;;;;;;;2.42;94.21;98775.50;4976813;28;20047;-68
2024/01/15 05:39:28;;;;;;;7.97;1.50;;;;;;;2.45;93.89;98772.13;4984644;28;20067;-66
2024/01/15 05:41:54;;;;;;;10.57;1.90;;;;;;;2.52;93.00;98763.72;4977619;28;20604;-67
2024/01/15 05:44:19;;;;;;;6.67;2.10;;;;;;;2.51;92.81;98759.38;4981573;28;20057;-65
2024/01/15 05:46:44;;;;;;;7.15;1.75;;;;;;;2.52;93.23;98758.50;4980655;28;20130;-65
2024/01/15 05:49:10;;;;;;;7.30;2.13;;;;;;;2.54;93.14;98756.88;4977123;28;20121;-66
2024/01/15 05:51:35;;;;;;;10.07;2.00;;;;;;;2.54;93.37;98755.16;4970229;28;20053;-67
2024/01/15 05:54:01;;;;;;;6.03;1.50;;;;;;;2.57;92.88;98754.38;4964191;28;20115;-65
2024/01/15 05:56:26;;;;;;;5.47;1.37;;;;;;;2.52;92.62;98758.50;4963956;28;20130;-68
2024/01/15 05:58:51;;;;;;;6.93;1.63;;;;;;;2.43;93.19;98768.56;4964331;28;20686;-66
2024/01/15 06:01:17;;;;;;;4.90;1.30;;;;;;;2.40;93.89;98761.53;4976506;28;20035;-65
2024/01/15 06:03:42;;;;;;;7.27;1.90;;;;;;;2.36;94.66;98770.06;4964250;28;20071;-68
2024/01/15 06:06:09;;;;;;;5.93;1.50;;;;;;;2.38;95.37;98759.69;4971262;28;20412;-66
2024/01/15 06:08:34;;;;;;;6.95;1.17;;;;;;;2.39;95.17;98779.69;4964339;28;20038;-65
2024/01/15 06:10:59;;;;;;;11.03;2.70;;;;;;;2.40;94.79;98773.66;4963686;28;20120;-68
2024/01/15 06:13:31;;;;;;;8.30;1.42;;;;;;;2.43;94.68;98768.56;4977054;28;20087;-65
2024/01/15 06:15:56;;;;;;;8.23;1.50;;;;;;;2.45;94.50;98761.72;4966258;28;20074;-68
2024/01/15 06:18:22;;;;;;;6.88;1.10;;;;;;;2.46;94.21;98755.69;4972272;28;20057;-65
2024/01/15 06:20:47;;;;;;;4.57;1.03;;;;;;;2.46;94.14;98753.09;4975685;28;20829;-63
2024/01/15 06:23:12;;;;;;;6.93;1.50;;;;;;;2.51;94.03;98755.06;4978030;28;20042;-66
2024/01/15 06:25:38;;;;;;;6.30;1.10;;;;;;;2.54;93.74;98760.38;4979070;28;20566;-64
2024/01/15 06:28:05;;;;;;;5.53;1.50;;;;;;;2.50;93.89;98758.47;4974290;28;20042;-65
2024/01/15 06:30:30;;;;;;;4.65;1.00;;;;;;;2.51;93.89;98759.38;4966621;28;20126;-65
2024/01/15 06:32:55;;;;;;;10.90;1.60;;;;;;;2.53;93.83;98760.31;5006079;28;20129;-65
2024/01/15 06:35:21;;;;;;;7.97;1.57;;;;;;;2.54;93.81;98767.28;4973940;28;20369;-66
2024/01/15 06:37:46;;;;;;;7.43;1.40;;;;;;;2.55;94.15;98767.38;4970673;28;20031;-64
2024/01/15 06:40:11;;;;;;;6.47;1.37;;;;;;;2.54;94.02;98773.41;4972576;28;20052;-65
2024/01/15 06:42:37;;;;;;;8.70;2.40;;;;;;;2.54;93.21;98767.28;4978917;28;20056;-65
2024/01/15 06:45:03;;;;;;;9.57;1.30;;;;;;;2.51;93.62;98754.16;4973711;28;20129;-65
2024/01/15 06:47:29;;;;;;;4.10;0.77;;;;;;;2.52;94.09;98763.72;4974039;28;20797;-67
2024/01/15 06:49:54;;;;;;;4.90;0.90;;;;;;;2.53;93.86;98763.78;4981719;28;20190;-64
2024/01/15 06:52:20;;;;;;;8.60;0.60;;;;;;;2.54;94.07;98765.59;4965881;28;20635;-66
2024/01/15 06:54:45;;;;;;;9.03;1.17;;;;;;;2.56;93.32;98765.66;4965431;28;20042;-68
2024/01/15 06:57:10;;;;;;;9.00;1.02;;;;;;;2.58;93.36;98751.84;4968372;28;20103;-65
2024/01/15 06:59:36;;;;;;;6.43;0.93;;;;;;;2.59;93.18;98755.34;4985087;28;20045;-65
2024/01/15 07:02:01;;;;;;;4.83;0.97;;;;;;;2.60;92.84;98772.75;4982016;28;20042;-66
2024/01/15 07:04:27;;;;;;;4.77;1.20;;;;;;;2.57;93.04;98770.91;4970025;28;20498;-66
2024/01/15 07:06:52;;;;;;;3.23;0.80;;;;;;;2.60;92.99;98776.25;4972833;28;20130;-66
2024/01/15 07:09:17;;;;;;;5.03;1.08;;;;;;;2.61;92.48;98764.13;4972506;28;20526;-67
2024/01/15 07:11:46;;;;;;;9.57;1.50;;;;;;;2.67;92.28;98766.06;4972922;28;20058;-64
2024/01/15 07:14:12;;;;;;;6.63;1.00;;;;;;;2.70;91.73;98789.66;4950178;28;20566;-65
2024/01/15 07:16:37;;;;;;;8.10;1.00;;;;;;;2.72;91.35;98788.88;4979017;28;20159;-66
2024/01/15 07:19:02;;;;;;;7.20;1.00;;;;;;;2.74;91.23;98788.94;4967440;28;20039;-65
2024/01/15 07:21:28;;;;;;;8.07;1.15;;;;;;;2.77;90.93;98794.28;4973175;28;20602;-65
2024/01/15 07:23:53;;;;;;;8.13;1.50;;;;;;;2.77;90.19;98792.56;4972634;28;20117;-67
2024/01/15 07:26:18;;;;;;;4.07;1.13;;;;;;;2.79;90.15;98800.44;4969594;28;20487;-65
2024/01/15 07:28:44;;;;;;;4.83;1.00;;;;;;;2.81;89.91;98804.88;4970507;28;20125;-66
2024/01/15 07:31:09;;;;;;;9.20;1.50;;;;;;;2.80;90.04;98807.44;4970785;28;20106;-70
2024/01/15 07:33:35;;;;;;;6.07;0.90;;;;;;;2.77;90.63;98813.41;4965504;28;20035;-65
2024/01/15 07:36:01;;;;;;;6.23;1.10;;;;;;;2.79;90.56;98816.97;4970788;28;20196;-65
2024/01/15 07:38:26;;;;;;;6.82;1.50;;;;;;;2.81;90.05;98812.69;4967230;28;20030;-67
2024/01/15 07:40:53;;;;;;;7.17;0.90;;;;;;;2.85;90.36;98822.44;4970330;28;20069;-66
2024/01/15 07:43:19;;;;;;;6.30;0.82;;;;;;;2.88;89.77;98835.59;4971283;28;20050;-63
2024/01/15 07:45:45;;;;;;;6.83;0.80;;;;;;;2.87;89.40;98823.38;4968763;28;20046;-64
2024/01/15 07:48:10;;;;;;;5.88;0.90;;;;;;;2.87;88.06;98823.38;4961766;28;20042;-64
2024/01/15 07:50:35;;;;;;;8.50;1.00;;;;;;;2.94;88.67;98825.41;4968658;28;20260;-61
2024/01/15 07:53:01;;;;;;;8.87;1.40;;;;;;;3.01;88.76;98832.63;4963531;28;20042;-63
2024/01/15 07:55:27;;;;;;;6.70;0.97;;;;;;;3.17;88.49;98823.72;4987819;28;20040;-65
2024/01/15 07:57:53;;;;;;;5.53;0.93;;;;;;;3.14;87.73;98820.09;4984917;28;20159;-65
2024/01/15 08:00:19;;;;;;;3.47;0.73;;;;;;;3.03;87.10;98817.97;4970813;28;20533;-65
2024/01/15 08:02:44;;;;;;;6.80;0.80;;;;;;;3.00;87.77;98837.81;4966011;28;20158;-65
2024/01/15 08:05:09;;;;;;;9.00;1.63;;;;;;;2.98;87.66;98835.13;4968290;28;20035;-64
2024/01/15 08:07:35;;;;;;;4.70;1.20;;;;;;;2.99;88.00;98829.09;4961491;28;20294;-63
2024/01/15 08:10:00;;;;;;;5.97;1.13;;;;;;;2.99;87.80;98836.91;4970467;28;20494;-66
2024/01/15 08:12:26;;;;;;;11.47;1.43;;;;;;;2.99;87.87;98823.88;4962458;28;20526;-63
2024/01/15 08:14:51;;;;;;;7.93;1.10;;;;;;;2.98;87.56;98836.84;4968898;28;20502;-63
2024/01/15 08:17:16;;;;;;;6.88;1.30;;;;;;;2.96;88.23;98838.53;4971129;28;20038;-64
2024/01/15 08:19:42;;;;;;;8.57;1.03;;;;;;;2.95;88.38;98828.91;4962831;28;20697;-65
2024/01/15 08:22:08;;;;;;;4.53;1.10;;;;;;;2.96;88.27;98835.91;4972868;28;20062;-66
2024/01/15 08:24:33;;;;;;;11.18;1.13;;;;;;;3.00;88.19;98840.44;4973498;28;20037;-65
2024/01/15 08:26:58;;;;;;;3.60;0.80;;;;;;;3.00;88.27;98830.88;4971612;28;20030;-66
2024/01/15 08:29:24;;;;;;;4.67;0.80;;;;;;;3.02;88.25;98820.50;4966846;28;20235;-66
2024/01/15 08:31:50;;;;;;;8.95;1.17;;;;;;;2.99;87.92;98836.03;4968258;28;20398;-69
2024/01/15 08:34:15;;;;;;;8.80;1.27;;;;;;;3.02;87.95;98836.13;4969572;28;20556;-65
2024/01/15 08:36:41;;;;;;;5.00;1.00;;;;;;;3.07;88.05;98824.19;4961709;28;20046;-66
2024/01/15 08:39:08;;;;;;;8.02;1.08;;;;;;;3.09;87.66;98832.06;4971974;28;20125;-65
2024/01/15 08:41:34;;;;;;;4.37;0.83;;;;;;;3.11;87.18;98831.28;4967100;28;20042;-65
2024/01/15 08:43:59;;;;;;;9.25;0.98;;;;;;;3.11;87.43;98840.84;4963129;28;20045;-68
2024/01/15 08:46:25;;;;;;;5.33;0.87;;;;;;;3.11;87.39;98846.06;4967995;28;20070;-66
2024/01/15 08:48:51;;;;;;;5.23;0.80;;;;;;;3.12;87.09;98845.22;4961380;28;20126;-65
2024/01/15 08:51:18;;;;;;;3.55;0.52;;;;;;;3.10;87.02;98842.56;4965560;28;20042;-64
2024/01/15 08:53:43;;;;;;;7.85;0.85;;;;;;;3.13;86.84;98857.44;4971481;28;20726;-64
2024/01/15 08:56:09;;;;;;;7.07;0.97;;;;;;;3.12;86.89;98843.50;4969948;28;20050;-66
2024/01/15 08:58:34;;;;;;;8.77;0.97;;;;;;;3.12;87.03;98847.81;4975488;28;20042;-65
2024/01/15 09:01:00;;;;;;;4.43;0.80;;;;;;;3.12;87.23;98853.03;4969991;28;20543;-65
2024/01/15 09:03:25;;;;;;;5.70;1.07;;;;;;;3.14;87.64;98867.03;4976288;28;20056;-64
2024/01/15 09:05:50;;;;;;;4.90;1.20;;;;;;;3.16;87.51;98857.56;4967902;28;20448;-66
2024/01/15 09:08:16;;;;;;;7.27;1.27;;;;;;;3.13;87.46;98858.31;4961548;28;20490;-65
2024/01/15 09:10:41;;;;;;;5.57;0.83;;;;;;;3.13;87.80;98870.47;4969125;28;20106;-65
2024/01/15 09:13:08;;;;;;;6.75;1.10;;;;;;;3.14;87.26;98862.72;4977686;28;20423;-66
2024/01/15 09:15:33;;;;;;;4.60;0.83;;;;;;;3.13;87.25;98865.25;4968950;28;20050;-65
2024/01/15 09:18:00;;;;;;;6.55;1.25;;;;;;;3.15;87.34;98863.63;4969181;28;20034;-66
2024/01/15 09:20:27;;;;;;;11.70;1.50;;;;;;;3.12;87.79;98872.19;4969074;28;20133;-66
2024/01/15 09:22:52;;;;;;;4.10;1.00;;;;;;;3.07;87.83;98873.72;4974692;28;20452;-64
2024/01/15 09:25:18;;;;;;;10.47;1.83;;;;;;;3.10;88.13;98862.53;4968646;28;20038;-67
2024/01/15 09:27:44;;;;;;;8.65;1.15;;;;;;;3.14;88.70;98864.44;4963564;28;20038;-65
2024/01/15 09:30:10;;;;;;;5.43;1.00;;;;;;;3.18;88.73;98863.72;4972212;28;20092;-66
2024/01/15 09:32:36;;;;;;;6.82;1.38;;;;;;;3.19;88.70;98870.72;4967456;28;20058;-64
2024/01/15 09:35:01;;;;;;;5.70;1.90;;;;;;;3.26;88.64;98872.72;4964231;28;20074;-66
2024/01/15 09:37:27;;;;;;;6.20;1.30;;;;;;;3.32;88.05;98886.03;4964355;28;20509;-67
2024/01/15 09:39:53;;;;;;;7.60;0.87;;;;;;;3.35;87.90;98881.84;4979664;28;20178;-64
2024/01/15 09:42:19;;;;;;;5.97;1.20;;;;;;;3.39;87.75;98877.63;4964480;28;20640;-66
2024/01/15 09:44:45;;;;;;;7.47;1.02;;;;;;;3.44;87.56;98881.31;4979546;28;20057;-65
2024/01/15 09:47:11;;;;;;;8.82;0.98;;;;;;;3.46;87.35;98879.63;4964627;28;20038;-66
2024/01/15 09:49:38;;;;;;;7.20;0.93;;;;;;;3.46;87.09;98887.44;4970601;28;20041;-63
2024/01/15 09:52:04;;;;;;;6.05;1.00;;;;;;;3.48;86.99;98884.09;4965620;28;20042;-64
2024/01/15 09:54:30;;;;;;;6.00;1.23;;;;;;;3.49;87.00;98887.59;4977571;28;20448;-68
2024/01/15 09:56:55;;;;;;;7.97;1.13;;;;;;;3.50;87.05;98878.94;4967638;28;20042;-65
2024/01/15 09:59:22;;;;;;;7.33;1.63;;;;;;;3.56;86.90;98866.09;4979020;28;20438;-64
2024/01/15 10:01:48;;;;;;;7.65;1.23;;;;;;;3.61;86.55;98877.59;4969690;28;20047;-65
2024/01/15 10:04:14;;;;;;;6.10;1.20;;;;;;;3.64;86.38;98872.53;4967195;28;20038;-65
2024/01/15 10:06:45;;;;;;;5.57;0.93;;;;;;;3.73;86.35;98867.63;4976808;28;20450;-64
2024/01/15 10:09:14;;;;;;;9.75;1.77;;;;;;;3.83;86.54;98864.53;4964089;28;20101;-65
2024/01/15 10:11:41;;;;;;;6.17;1.00;;;;;;;3.82;86.68;98857.53;4964591;28;20073;-65
2024/01/15 10:14:06;;;;;;;6.88;0.90;;;;;;;3.81;86.59;98854.84;4980178;28;20496;-65
2024/01/15 10:16:32;;;;;;;5.10;0.97;;;;;;;3.81;86.20;98847.03;4964079;28;20064;-64
2024/01/15 10:18:57;;;;;;;4.40;0.63;;;;;;;3.86;86.35;98872.47;4962797;28;20294;-64
2024/01/15 10:21:23;;;;;;;5.97;1.00;;;;;;;3.92;86.34;98858.75;4971014;28;20474;-65
2024/01/15 10:23:49;;;;;;;3.27;0.73;;;;;;;3.95;86.06;98858.00;4968105;28;20100;-67
2024/01/15 10:26:14;;;;;;;6.30;0.95;;;;;;;3.95;85.78;98865.84;4963279;28;20046;-65
2024/01/15 10:28:40;;;;;;;5.57;1.10;;;;;;;3.99;85.60;98850.34;4971481;28;20042;-64
2024/01/15 10:31:06;;;;;;;4.05;0.80;;;;;;;4.09;84.63;98849.84;4979518;28;20693;-66
2024/01/15 10:33:31;;;;;;;4.63;0.80;;;;;;;4.10;84.04;98853.31;4966879;28;20073;-63
2024/01/15 10:35:59;;;;;;;4.90;1.17;;;;;;;4.16;84.45;98850.91;4961942;28;20371;-66
2024/01/15 10:38:24;;;;;;;4.97;1.10;;;;;;;4.22;84.22;98848.53;4963346;28;20046;-65
2024/01/15 10:40:54;;;;;;;5.65;1.00;;;;;;;4.16;83.65;98854.41;4963341;28;20406;-68
2024/01/15 10:43:20;;;;;;;4.05;1.02;;;;;;;4.11;83.78;98860.31;4967391;28;20042;-64
2024/01/15 10:45:46;;;;;;;8.50;1.20;;;;;;;4.04;83.89;98853.09;4974951;28;20034;-66
2024/01/15 10:48:12;;;;;;;3.83;0.82;;;;;;;4.01;83.75;98846.03;4965921;28;20042;-65
2024/01/15 10:50:37;;;;;;;5.55;0.90;;;;;;;4.03;83.79;98851.31;4982527;28;20039;-66
2024/01/15 10:53:04;;;;;;;5.27;0.90;;;;;;;4.02;83.32;98847.81;4972900;28;20038;-64
2024/01/15 10:55:30;;;;;;;5.57;0.85;;;;;;;4.04;83.48;98854.00;4968314;28;20066;-64
2024/01/15 10:57:57;;;;;;;5.37;0.80;;;;;;;4.02;83.20;98841.69;4964135;28;20175;-64
2024/01/15 11:00:22;;;;;;;4.20;0.65;;;;;;;4.08;83.11;98841.94;4964623;28;20375;-65
2024/01/15 11:02:48;;;;;;;5.68;0.82;;;;;;;4.16;82.87;98848.31;4966681;28;20118;-64
2024/01/15 11:05:13;;;;;;;5.97;0.90;;;;;;;4.27;82.53;98841.75;4961828;28;20482;-64
2024/01/15 11:07:40;;;;;;;3.57;0.77;;;;;;;4.38;82.00;98840.41;4962866;28;20471;-65
2024/01/15 11:10:10;;;;;;;3.67;0.70;;;;;;;4.50;81.71;98835.56;4962361;28;20049;-67
2024/01/15 11:12:35;;;;;;;3.85;0.85;;;;;;;4.81;81.25;98854.91;4967490;28;20042;-66
2024/01/15 11:15:08;;;;;;;4.57;0.80;;;;;;;4.99;79.94;98853.78;4972404;28;20050;-65
2024/01/15 11:18:05;;;;;;;6.03;0.85;;;;;;;4.98;80.40;98856.38;4970501;28;20034;-67
2024/01/15 11:20:32;;;;;;;4.07;1.03;;;;;;;4.86;80.60;98861.19;4963088;28;20093;-64
2024/01/15 11:22:59;;;;;;;8.05;0.90;;;;;;;4.62;80.66;98867.38;4972903;28;20127;-64
2024/01/15 11:25:35;;;;;;;3.63;0.77;;;;;;;4.43;81.66;98859.75;4975741;28;20065;-65
2024/01/15 11:28:01;;;;;;;6.65;1.05;;;;;;;4.32;82.40;98867.22;4964318;28;20050;-66
2024/01/15 11:30:26;;;;;;;4.50;1.00;;;;;;;4.16;83.17;98859.66;4975488;28;20347;-64
2024/01/15 11:32:52;;;;;;;4.40;0.73;;;;;;;4.03;83.63;98867.88;4973450;28;20046;-67
2024/01/15 11:35:18;;;;;;;4.93;1.00;;;;;;;3.92;84.01;98870.09;4974372;28;20045;-66